Time;durP1;ratioP1;P1;durP2;ratioP2;P2;SDS_P1;SDS_P2;PMS_P1;PMS_P2;Temp;Humidity;BMP_temperature;BMP_pressure;BME280_temperature;BME280_humidity;BME280_pressure;Samples;Min_cycle;Max_cycle;Signal;HPM_P1;HPM_P2
2023/07/05 00:03:22;;;;;;;10.48;6.03;;;;;;;16.11;60.09;100937.66;15790889;28;20076;-53
2023/07/05 00:11:02;;;;;;;12.63;6.28;;;;;;;16.03;59.05;100917.19;15807673;28;20044;-52
2023/07/05 00:18:37;;;;;;;17.67;6.07;;;;;;;16.20;58.94;100922.66;15801994;28;20044;-51
2023/07/05 00:26:13;;;;;;;12.88;5.70;;;;;;;16.02;59.07;100910.16;15807413;28;20112;-53
2023/07/05 00:33:48;;;;;;;13.93;6.13;;;;;;;15.45;60.10;100867.59;15807339;28;20048;-53
2023/07/05 00:41:21;;;;;;;13.82;6.72;;;;;;;15.78;60.18;100901.28;15793276;28;20571;-55
2023/07/05 00:49:02;;;;;;;10.43;6.03;;;;;;;15.43;60.38;100888.63;15774566;28;20108;-50
2023/07/05 00:56:47;;;;;;;12.07;6.63;;;;;;;15.59;59.68;100883.56;15791967;28;20183;-52
2023/07/05 01:04:22;;;;;;;10.98;6.57;;;;;;;15.76;60.24;100874.47;15786399;28;20127;-52
2023/07/05 01:12:02;;;;;;;10.68;6.80;;;;;;;15.69;60.42;100862.97;15770437;28;20035;-53
2023/07/05 01:20:10;;;;;;;13.60;7.05;;;;;;;15.69;60.91;100841.31;15782649;28;20143;-49
2023/07/05 01:28:04;;;;;;;13.40;7.10;;;;;;;15.59;61.46;100829.44;15779263;28;20095;-52
2023/07/05 01:35:49;;;;;;;13.82;7.25;;;;;;;15.68;61.49;100834.25;15787093;28;20056;-52
2023/07/05 01:43:24;;;;;;;14.50;7.03;;;;;;;15.93;60.65;100823.06;15771572;28;20044;-54
2023/07/05 01:51:07;;;;;;;10.68;6.50;;;;;;;15.63;60.71;100826.03;15782696;28;20059;-53
2023/07/05 01:58:46;;;;;;;10.75;6.70;;;;;;;15.50;61.19;100812.78;15794423;28;20121;-50
2023/07/05 02:06:22;;;;;;;13.35;6.18;;;;;;;15.18;62.37;100804.28;15795118;28;20056;-50
2023/07/05 02:13:58;;;;;;;12.60;6.13;;;;;;;14.97;62.54;100801.16;15796616;28;20051;-52
2023/07/05 02:21:33;;;;;;;10.98;6.57;;;;;;;14.85;63.12;100794.13;15775852;28;20040;-53
2023/07/05 02:29:06;;;;;;;12.98;6.90;;;;;;;14.59;63.51;100768.41;15816126;28;20459;-54
2023/07/05 02:36:40;;;;;;;13.48;6.35;;;;;;;14.80;63.10;100763.22;15793426;28;20040;-51
2023/07/05 02:44:13;;;;;;;12.18;6.47;;;;;;;14.93;61.96;100740.53;15816301;28;20044;-53
2023/07/05 02:51:51;;;;;;;14.77;5.50;;;;;;;15.26;60.74;100715.50;15793818;28;20106;-53
2023/07/05 02:59:27;;;;;;;9.05;5.50;;;;;;;15.12;60.36;100703.34;15794840;28;20047;-51
2023/07/05 03:07:02;;;;;;;12.43;5.85;;;;;;;15.34;59.69;100703.50;15788863;28;20094;-53
2023/07/05 03:14:35;;;;;;;15.48;5.97;;;;;;;15.35;59.21;100698.91;15776082;28;20528;-53
2023/07/05 03:22:15;;;;;;;9.90;5.75;;;;;;;15.59;58.51;100705.81;15788719;28;20064;-52
2023/07/05 03:29:48;;;;;;;9.75;5.50;;;;;;;15.71;58.21;100706.56;15794911;28;20080;-55
2023/07/05 03:37:24;;;;;;;11.05;5.45;;;;;;;15.76;57.58;100693.16;15794969;28;20048;-52
2023/07/05 03:44:57;;;;;;;13.07;5.63;;;;;;;15.80;57.53;100685.34;15791635;28;20048;-52
2023/07/05 03:52:31;;;;;;;10.48;5.60;;;;;;;15.67;57.97;100675.69;15809024;28;20067;-52
2023/07/05 04:00:05;;;;;;;11.63;6.05;;;;;;;16.08;57.10;100673.59;15811592;28;20501;-53
2023/07/05 04:07:46;;;;;;;10.63;5.40;;;;;;;15.96;56.93;100665.59;15796340;28;20528;-55
2023/07/05 04:15:20;;;;;;;11.90;5.80;;;;;;;16.06;56.84;100649.47;15788923;28;20032;-53
2023/07/05 04:22:54;;;;;;;12.35;5.97;;;;;;;15.93;57.38;100644.41;15800377;28;20044;-55
2023/07/05 04:30:28;;;;;;;10.05;6.03;;;;;;;16.14;57.18;100631.19;15783318;28;20119;-52
2023/07/05 04:38:02;;;;;;;11.40;5.78;;;;;;;16.40;56.32;100621.50;15806761;28;20044;-51
2023/07/05 04:45:35;;;;;;;12.63;5.72;;;;;;;16.30;56.66;100604.03;15806553;28;20044;-50
2023/07/05 04:53:10;;;;;;;12.73;5.30;;;;;;;16.52;55.83;100608.66;15827574;22;20093;-57
2023/07/05 05:00:46;;;;;;;10.45;5.50;;;;;;;16.47;56.43;100590.44;15833081;28;20071;-57
2023/07/05 05:08:22;;;;;;;9.82;5.25;;;;;;;17.09;54.91;100595.47;15776869;28;20048;-56
2023/07/05 05:15:55;;;;;;;8.25;5.15;;;;;;;17.20;54.39;100580.09;15771014;28;20044;-53
2023/07/05 05:23:30;;;;;;;12.70;5.10;;;;;;;17.56;53.03;100583.09;15791331;28;20047;-53
2023/07/05 05:31:09;;;;;;;10.70;5.38;;;;;;;17.77;52.59;100573.25;15785074;28;20119;-58
2023/07/05 05:38:43;;;;;;;10.27;5.68;;;;;;;17.64;52.10;100560.91;15774678;28;20421;-51
2023/07/05 05:46:18;;;;;;;11.60;5.63;;;;;;;17.94;51.98;100548.63;15774863;28;20232;-53
2023/07/05 05:53:52;;;;;;;11.75;5.47;;;;;;;18.13;51.86;100543.53;15790433;28;20104;-52
2023/07/05 06:01:25;;;;;;;11.15;5.80;;;;;;;18.02;52.35;100515.53;15791638;28;20078;-53
2023/07/05 06:08:59;;;;;;;11.98;5.95;;;;;;;18.17;51.39;100506.63;15791294;28;20064;-47
2023/07/05 06:16:32;;;;;;;14.23;6.20;;;;;;;18.38;51.41;100483.06;15791330;28;20461;-56
2023/07/05 06:24:06;;;;;;;11.93;6.18;;;;;;;18.35;52.10;100474.34;15791574;28;20079;-56
2023/07/05 06:31:39;;;;;;;13.45;7.00;;;;;;;18.99;51.08;100464.13;15772883;28;20075;-58
2023/07/05 06:39:13;;;;;;;;;;;;;;;18.97;50.84;100455.38;15748542;28;20082;-57
2023/07/05 06:46:47;;;;;;;16.05;7.03;;;;;;;19.29;50.00;100445.00;15781831;28;19920;-48
2023/07/05 06:54:21;;;;;;;;;;;;;;;19.45;49.64;100466.78;15784365;28;20052;-56
2023/07/05 07:01:54;;;;;;;15.32;8.50;;;;;;;19.80;49.01;100477.56;15783354;28;19920;-54
2023/07/05 07:09:29;;;;;;;14.70;8.55;;;;;;;20.36;47.88;100460.94;15800893;28;20036;-52
2023/07/05 07:17:03;;;;;;;14.18;9.57;;;;;;;20.85;46.88;100446.44;15781828;28;20036;-55
2023/07/05 07:24:37;;;;;;;16.67;10.75;;;;;;;21.19;46.48;100439.31;15800277;28;20048;-56
2023/07/05 07:32:10;;;;;;;20.58;11.23;;;;;;;21.67;45.13;100433.91;15780976;28;20538;-52
2023/07/05 07:39:44;;;;;;;;;;;;;;;21.47;46.38;100441.22;15798915;28;20048;-54
2023/07/05 07:47:17;;;;;;;17.42;12.52;;;;;;;21.04;46.33;100438.38;15798406;28;19984;-49
2023/07/05 07:54:55;;;;;;;19.77;12.65;;;;;;;21.33;46.42;100460.22;15779645;28;20040;-56
2023/07/05 08:02:27;;;;;;;19.05;12.25;;;;;;;21.84;46.06;100461.56;15779087;28;20055;-57
2023/07/05 08:10:02;;;;;;;22.13;12.30;;;;;;;21.76;46.81;100473.94;15796332;28;20532;-54
2023/07/05 08:17:35;;;;;;;24.75;13.48;;;;;;;21.53;46.68;100472.03;15778453;28;20040;-52
2023/07/05 08:25:10;;;;;;;20.02;12.48;;;;;;;21.89;45.97;100470.50;15777569;28;20138;-56
2023/07/05 08:32:42;;;;;;;17.38;11.63;;;;;;;21.78;45.34;100462.75;15794608;28;20043;-57
2023/07/05 08:40:17;;;;;;;18.02;10.77;;;;;;;21.71;46.03;100456.81;15794885;28;20044;-52
2023/07/05 08:47:53;;;;;;;20.15;10.95;;;;;;;21.94;46.37;100475.09;15794618;28;20040;-54
2023/07/05 08:55:48;;;;;;;14.65;10.05;;;;;;;22.02;45.43;100470.91;15795001;28;20052;-59
2023/07/05 09:03:24;;;;;;;14.55;10.18;;;;;;;21.94;45.79;100455.16;15793486;28;20451;-58
2023/07/05 09:11:04;;;;;;;15.07;9.77;;;;;;;21.73;46.42;100460.88;15793185;28;20152;-58
2023/07/05 09:18:52;;;;;;;17.25;10.38;;;;;;;21.83;46.90;100457.22;15758775;28;20071;-47
2023/07/05 09:26:31;;;;;;;13.27;9.05;;;;;;;21.83;46.98;100468.97;15792848;28;20107;-52
2023/07/05 09:34:19;;;;;;;16.50;8.80;;;;;;;22.30;46.41;100469.19;15775006;28;20062;-56
2023/07/05 09:41:57;;;;;;;12.43;8.20;;;;;;;22.63;46.47;100459.13;15773853;28;20036;-56
2023/07/05 09:49:31;;;;;;;14.52;8.00;;;;;;;22.61;46.28;100458.59;15791297;28;20047;-49
2023/07/05 09:57:09;;;;;;;12.40;7.40;;;;;;;22.32;47.66;100450.56;15791324;28;20136;-56
2023/07/05 10:04:46;;;;;;;14.32;6.95;;;;;;;22.28;48.27;100447.59;15774731;28;20040;-50
2023/07/05 10:12:23;;;;;;;12.07;6.93;;;;;;;22.68;48.43;100439.91;15792175;28;20123;-51
2023/07/05 10:19:56;;;;;;;9.13;6.00;;;;;;;23.89;46.16;100438.78;15798944;28;20389;-52
2023/07/05 10:27:33;;;;;;;7.85;5.43;;;;;;;23.82;47.68;100421.13;15785352;28;20131;-52
2023/07/05 10:35:19;;;;;;;7.22;4.40;;;;;;;23.24;47.54;100417.03;15802690;28;20464;-53
2023/07/05 10:42:58;;;;;;;9.93;4.35;;;;;;;22.94;49.98;100428.53;15767618;28;20388;-56
2023/07/05 10:50:33;;;;;;;7.13;3.85;;;;;;;22.55;50.32;100416.03;15801435;28;20424;-53
2023/07/05 10:58:13;;;;;;;7.18;3.72;;;;;;;22.46;53.40;100436.97;15801780;28;20394;-57
2023/07/05 11:05:49;;;;;;;6.72;3.95;;;;;;;22.19;55.96;100449.38;15801472;28;20159;-51
2023/07/05 11:13:23;;;;;;;4.60;3.25;;;;;;;22.95;54.14;100443.88;15800751;28;20044;-59
2023/07/05 11:20:59;;;;;;;7.78;2.95;;;;;;;23.12;52.10;100430.41;15782622;28;20052;-54
2023/07/05 11:28:38;;;;;;;7.30;3.05;;;;;;;23.50;51.30;100428.34;15799142;28;20048;-55
2023/07/05 11:36:31;;;;;;;3.50;2.80;;;;;;;23.29;50.94;100436.13;15780834;28;20055;-49
2023/07/05 11:44:29;;;;;;;5.78;2.50;;;;;;;23.50;51.03;100443.94;15780440;28;20388;-57
2023/07/05 11:52:15;;;;;;;6.25;2.60;;;;;;;23.73;50.39;100439.41;15797089;28;20068;-58
2023/07/05 11:59:56;;;;;;;5.05;2.30;;;;;;;23.36;49.66;100433.81;15797896;28;20078;-47
2023/07/05 12:07:31;;;;;;;5.20;2.10;;;;;;;23.96;49.48;100435.63;15796771;28;20529;-57
2023/07/05 12:15:06;;;;;;;7.85;2.28;;;;;;;23.97;48.46;100417.22;15778542;28;20040;-55
2023/07/05 12:22:39;;;;;;;6.18;2.00;;;;;;;23.93;47.52;100417.06;15796244;28;20051;-57
2023/07/05 12:30:19;;;;;;;6.00;1.90;;;;;;;23.90;47.61;100421.22;15795850;28;20140;-59
2023/07/05 12:37:54;;;;;;;4.88;1.85;;;;;;;24.27;46.87;100410.25;15789984;28;20043;-52
2023/07/05 12:45:30;;;;;;;4.20;1.67;;;;;;;24.13;47.43;100402.88;15774854;28;20072;-53
2023/07/05 12:53:07;;;;;;;5.10;1.80;;;;;;;23.99;46.49;100404.84;15790003;28;20048;-53
2023/07/05 13:00:51;;;;;;;5.93;1.63;;;;;;;24.31;45.60;100403.03;15789018;28;20067;-56
2023/07/05 13:08:25;;;;;;;4.07;1.20;;;;;;;24.11;46.79;100410.63;15791608;28;20121;-58
2023/07/05 13:16:18;;;;;;;7.20;1.83;;;;;;;23.32;48.50;100441.00;15792892;28;20132;-56
2023/07/05 13:23:52;;;;;;;5.95;2.17;;;;;;;22.93;50.02;100444.16;15772181;28;20044;-54
2023/07/05 13:31:30;;;;;;;4.03;2.40;;;;;;;23.41;49.15;100449.34;15792457;28;20101;-49
2023/07/05 13:39:04;;;;;;;5.10;2.50;;;;;;;23.37;49.57;100453.78;15792544;28;20052;-51
2023/07/05 13:46:38;;;;;;;5.90;2.65;;;;;;;24.71;44.70;100445.16;15774627;28;20040;-52
2023/07/05 13:54:15;;;;;;;6.55;2.70;;;;;;;24.97;43.32;100437.13;15804921;28;20097;-54
2023/07/05 14:01:52;;;;;;;6.78;3.08;;;;;;;24.95;42.62;100428.38;15794518;28;20067;-52
2023/07/05 14:09:26;;;;;;;4.70;2.92;;;;;;;25.52;41.31;100453.25;15812690;28;20059;-55
2023/07/05 14:17:00;;;;;;;7.03;2.60;;;;;;;24.96;36.12;100435.50;15811701;28;20110;-46
2023/07/05 14:24:33;;;;;;;10.60;2.97;;;;;;;25.04;35.45;100431.16;15812017;28;20055;-57
2023/07/05 14:32:11;;;;;;;5.15;2.83;;;;;;;25.01;37.34;100443.59;15794796;28;20048;-58
2023/07/05 14:39:44;;;;;;;7.15;2.70;;;;;;;24.38;35.82;100467.34;15793586;28;20040;-55
2023/07/05 14:47:21;;;;;;;9.93;2.92;;;;;;;24.55;35.11;100494.13;15793101;28;20043;-49
2023/07/05 14:54:54;;;;;;;8.73;2.15;;;;;;;24.91;34.95;100512.50;15793412;28;20060;-53
2023/07/05 15:02:28;;;;;;;5.47;2.15;;;;;;;24.06;34.66;100525.06;15808401;28;20560;-50
2023/07/05 15:10:04;;;;;;;7.20;2.20;;;;;;;23.93;34.14;100529.47;15800785;28;20348;-53
2023/07/05 15:17:39;;;;;;;4.50;1.73;;;;;;;23.63;34.58;100541.78;15798756;28;20145;-54
2023/07/05 15:25:13;;;;;;;2.80;1.33;;;;;;;23.33;34.66;100556.84;15799565;28;20040;-53
2023/07/05 15:32:47;;;;;;;5.45;1.58;;;;;;;23.27;34.61;100555.28;15782416;28;20127;-55
2023/07/05 15:40:22;;;;;;;8.98;1.90;;;;;;;23.06;34.20;100554.81;15799068;28;20390;-49
2023/07/05 15:47:57;;;;;;;3.17;1.25;;;;;;;22.96;32.65;100580.44;15779826;28;20040;-47
2023/07/05 15:55:30;;;;;;;4.47;1.30;;;;;;;22.77;34.27;100594.09;15798050;28;20209;-50
2023/07/05 16:03:05;;;;;;;7.35;2.10;;;;;;;22.65;34.91;100615.59;15798044;28;20047;-57
2023/07/05 16:10:40;;;;;;;3.15;1.25;;;;;;;22.49;34.52;100625.09;15798268;28;20040;-54
2023/07/05 16:18:14;;;;;;;4.63;1.30;;;;;;;22.74;35.50;100649.38;15795884;28;20040;-55
2023/07/05 16:25:48;;;;;;;2.35;1.30;;;;;;;22.21;34.00;100663.16;15797673;28;20423;-52
2023/07/05 16:33:22;;;;;;;3.40;1.40;;;;;;;22.36;34.51;100665.72;15796397;28;20459;-53
2023/07/05 16:40:59;;;;;;;3.28;1.10;;;;;;;22.47;35.73;100671.06;15759528;28;20052;-51
2023/07/05 16:48:35;;;;;;;2.75;1.13;;;;;;;22.13;34.08;100678.28;15795508;28;20044;-50
2023/07/05 16:56:08;;;;;;;2.75;1.15;;;;;;;22.13;34.13;100697.41;15820416;22;20048;-54
2023/07/05 17:03:42;;;;;;;2.38;1.10;;;;;;;21.88;33.90;100705.81;15829886;28;20044;-53
2023/07/05 17:11:16;;;;;;;6.55;1.50;;;;;;;21.55;34.49;100699.25;15796449;28;20051;-53
2023/07/05 17:18:50;;;;;;;5.22;1.30;;;;;;;22.15;33.93;100714.34;15781533;28;20040;-57
2023/07/05 17:26:23;;;;;;;4.20;1.42;;;;;;;21.89;34.29;100721.91;15798551;28;20086;-57
2023/07/05 17:33:58;;;;;;;5.05;2.00;;;;;;;21.68;34.38;100730.56;15782572;28;20052;-53
2023/07/05 17:41:32;;;;;;;2.45;0.98;;;;;;;21.36;34.29;100732.69;15798490;28;20089;-48
2023/07/05 17:49:10;;;;;;;4.60;1.40;;;;;;;21.35;33.47;100739.22;15798829;28;20157;-52
2023/07/05 17:56:43;;;;;;;4.18;1.40;;;;;;;21.29;34.62;100747.72;15798557;28;20484;-54
2023/07/05 18:04:17;;;;;;;4.90;1.27;;;;;;;21.07;34.23;100750.81;15784840;28;20072;-55
2023/07/05 18:11:50;;;;;;;7.38;1.48;;;;;;;21.36;34.26;100754.53;15780055;28;20067;-53
2023/07/05 18:19:25;;;;;;;157.50;7.93;;;;;;;21.19;34.43;100766.88;15762732;28;20052;-51
2023/07/05 18:26:58;;;;;;;4.80;2.08;;;;;;;21.35;34.59;100773.91;15771876;28;20048;-56
2023/07/05 18:34:32;;;;;;;3.88;1.70;;;;;;;21.51;34.55;100771.94;15776827;28;20040;-52
2023/07/05 18:42:08;;;;;;;3.58;1.40;;;;;;;21.62;35.53;100770.75;15802109;28;20056;-52
2023/07/05 18:49:42;;;;;;;3.25;1.35;;;;;;;20.61;36.04;100781.81;15802707;28;20063;-52
2023/07/05 18:57:15;;;;;;;3.08;1.33;;;;;;;21.07;35.92;100797.22;15809892;28;20076;-53
2023/07/05 19:04:49;;;;;;;3.40;1.58;;;;;;;20.87;35.86;100812.56;15790253;28;20457;-49
2023/07/05 19:12:23;;;;;;;4.25;1.33;;;;;;;21.04;36.61;100822.34;15785664;28;20537;-50
2023/07/05 19:19:58;;;;;;;3.58;1.42;;;;;;;21.07;36.44;100835.44;15805469;28;20063;-49
2023/07/05 19:27:35;;;;;;;3.22;1.50;;;;;;;20.59;37.52;100851.34;15805534;28;20492;-53
2023/07/05 19:35:12;;;;;;;3.95;1.88;;;;;;;20.75;38.67;100855.72;15806628;28;20044;-49
2023/07/05 19:42:45;;;;;;;3.42;1.98;;;;;;;20.34;37.67;100861.16;15767103;28;20485;-49
2023/07/05 19:50:19;;;;;;;;;;;;;;;20.29;38.39;100872.06;15787341;28;20407;-51
2023/07/05 19:57:52;;;;;;;4.57;1.70;;;;;;;20.24;38.61;100879.44;15789415;28;19920;-49
2023/07/05 20:05:32;;;;;;;4.20;1.92;;;;;;;19.99;39.42;100896.53;15770028;28;20562;-49
2023/07/05 20:13:05;;;;;;;7.82;1.90;;;;;;;20.01;39.52;100900.66;15803733;28;20048;-49
2023/07/05 20:20:40;;;;;;;4.65;1.80;;;;;;;19.77;40.30;100910.34;15786822;28;20073;-49
2023/07/05 20:28:13;;;;;;;5.38;2.30;;;;;;;19.44;40.46;100903.38;15781574;28;20135;-50
2023/07/05 20:35:48;;;;;;;9.50;1.90;;;;;;;19.45;40.24;100921.38;15799017;28;20078;-51
2023/07/05 20:43:20;;;;;;;4.55;2.35;;;;;;;19.07;40.37;100939.66;15804864;28;20048;-50
2023/07/05 20:50:59;;;;;;;7.15;2.10;;;;;;;18.74;40.99;100944.28;15782583;28;20040;-51
2023/07/05 20:58:34;;;;;;;7.15;2.10;;;;;;;18.70;41.08;100936.91;15799335;28;20086;-51
2023/07/05 21:06:09;;;;;;;5.22;2.30;;;;;;;18.22;42.21;100955.75;15799117;28;20075;-50
2023/07/05 21:13:43;;;;;;;6.35;2.63;;;;;;;18.04;43.23;100959.63;15784331;28;20036;-50
2023/07/05 21:21:17;;;;;;;6.35;2.10;;;;;;;18.12;44.10;100954.81;15791024;28;20124;-50
2023/07/05 21:28:50;;;;;;;7.47;2.40;;;;;;;18.02;43.40;100960.97;15787879;28;20120;-49
2023/07/05 21:36:24;;;;;;;;;;;;;;;17.77;43.86;100966.91;15800610;28;20054;-50
2023/07/05 21:43:57;;;;;;;5.65;2.45;;;;;;;17.63;44.35;100974.59;15781615;28;19966;-50
2023/07/05 21:51:34;;;;;;;5.53;2.22;;;;;;;17.55;45.36;100975.00;15798374;28;20037;-47
2023/07/05 21:59:07;;;;;;;6.22;2.30;;;;;;;17.59;46.78;100992.44;15787209;28;20056;-50
2023/07/05 22:06:41;;;;;;;6.05;2.28;;;;;;;17.75;45.52;101002.44;15778954;28;20451;-48
2023/07/05 22:14:14;;;;;;;7.75;2.50;;;;;;;17.40;46.61;101001.94;15784431;28;20057;-52
2023/07/05 22:21:48;;;;;;;6.53;2.40;;;;;;;17.81;46.71;101006.06;15791280;28;20047;-48
2023/07/05 22:29:22;;;;;;;12.20;2.50;;;;;;;17.77;46.62;101011.19;15798276;28;20550;-50
2023/07/05 22:36:58;;;;;;;7.20;2.40;;;;;;;17.66;47.57;101016.69;15790650;28;20041;-48
2023/07/05 22:44:32;;;;;;;5.05;2.47;;;;;;;17.51;48.17;101020.81;15803365;28;20032;-50
2023/07/05 22:52:07;;;;;;;;;;;;;;;17.46;48.42;101009.06;15808515;28;20504;-52
2023/07/05 22:59:41;;;;;;;4.68;2.53;;;;;;;17.36;48.58;101017.06;15794347;28;19920;-52
2023/07/05 23:07:23;;;;;;;4.75;2.28;;;;;;;17.13;49.65;101018.88;15787541;28;20052;-52
2023/07/05 23:14:57;;;;;;;6.00;2.55;;;;;;;16.95;50.48;101021.84;15787338;28;20115;-51
2023/07/05 23:22:31;;;;;;;6.03;2.83;;;;;;;16.75;51.06;101015.00;15804395;28;20042;-55
2023/07/05 23:30:06;;;;;;;6.57;2.40;;;;;;;16.68;50.81;101024.31;15809762;28;20051;-52
2023/07/05 23:37:41;;;;;;;5.35;2.70;;;;;;;16.54;51.75;101031.91;15805020;28;20048;-53
2023/07/05 23:45:13;;;;;;;5.60;2.60;;;;;;;16.41;52.00;101034.91;15805263;28;20087;-53
2023/07/05 23:52:48;;;;;;;6.10;3.20;;;;;;;16.28;52.49;101036.88;15802646;28;20075;-53
